Time;durP1;ratioP1;P1;durP2;ratioP2;P2;SDS_P1;SDS_P2;PMS_P1;PMS_P2;Temp;Humidity;BMP_temperature;BMP_pressure;BME280_temperature;BME280_humidity;BME280_pressure;Samples;Min_cycle;Max_cycle;Signal;HPM_P1;HPM_P2
2023/09/12 00:02:18;;;;;;;10.95;6.50;;;;;;;13.59;72.29;97805.53;10453374;28;20491;-53
2023/09/12 00:07:17;;;;;;;9.65;6.55;;;;;;;13.53;72.20;97814.22;10454790;28;20027;-53
2023/09/12 00:12:17;;;;;;;10.13;6.32;;;;;;;13.45;72.25;97813.47;10457536;28;20039;-53
2023/09/12 00:17:16;;;;;;;10.70;6.43;;;;;;;13.38;72.16;97810.97;10457893;28;20491;-54
2023/09/12 00:22:15;;;;;;;13.10;7.30;;;;;;;12.92;72.58;97758.44;10456804;28;20429;-53
2023/09/12 00:27:14;;;;;;;13.30;6.65;;;;;;;13.26;72.50;97811.97;10457245;28;20032;-53
2023/09/12 00:32:12;;;;;;;14.70;7.10;;;;;;;13.10;72.54;97785.19;10457760;28;20146;-54
2023/09/12 00:37:11;;;;;;;15.32;7.57;;;;;;;13.19;72.95;97816.38;10456975;28;20055;-53
2023/09/12 00:42:10;;;;;;;15.65;7.18;;;;;;;13.14;73.19;97813.81;10456836;28;20107;-53
2023/09/12 00:47:11;;;;;;;11.15;6.68;;;;;;;12.99;73.23;97792.25;10455658;28;20057;-54
2023/09/12 00:52:11;;;;;;;9.57;6.28;;;;;;;13.00;73.78;97810.50;10453217;28;20090;-53
2023/09/12 00:57:10;;;;;;;12.90;6.10;;;;;;;13.00;74.20;97825.22;10453682;28;20813;-53
2023/09/12 01:02:10;;;;;;;10.60;6.30;;;;;;;12.94;74.38;97815.75;10454566;28;20403;-54
2023/09/12 01:07:09;;;;;;;12.10;6.80;;;;;;;12.64;74.49;97783.88;10453053;28;20071;-53
2023/09/12 01:12:08;;;;;;;14.02;5.90;;;;;;;12.80;74.39;97818.47;10451511;28;20490;-55
2023/09/12 01:17:07;;;;;;;10.20;6.32;;;;;;;12.76;74.78;97818.50;10450608;28;20536;-54
2023/09/12 01:22:40;;;;;;;13.65;6.50;;;;;;;12.72;74.93;97823.75;10452412;28;20797;-53
2023/09/12 01:27:46;;;;;;;10.60;5.97;;;;;;;12.54;75.58;97804.81;10451300;28;20063;-53
2023/09/12 01:32:46;;;;;;;12.45;6.70;;;;;;;12.56;76.05;97818.69;10451859;28;20063;-53
2023/09/12 01:37:45;;;;;;;12.43;7.03;;;;;;;12.61;75.36;97819.50;10445555;28;20574;-53
2023/09/12 01:42:46;;;;;;;14.93;6.80;;;;;;;12.61;75.21;97833.38;10448849;28;20475;-53
2023/09/12 01:47:47;;;;;;;10.48;6.50;;;;;;;12.47;75.73;97809.22;10448929;28;20083;-54
2023/09/12 01:52:47;;;;;;;11.68;6.32;;;;;;;12.37;75.97;97789.31;10449155;28;20067;-53
2023/09/12 01:57:47;;;;;;;10.98;6.50;;;;;;;12.49;76.07;97826.53;10450218;28;20063;-54
2023/09/12 02:02:46;;;;;;;13.88;7.25;;;;;;;12.44;75.86;97830.06;10450591;28;20122;-53
2023/09/12 02:07:46;;;;;;;15.65;7.53;;;;;;;12.34;75.80;97834.44;10450570;28;20042;-52
2023/09/12 02:12:45;;;;;;;13.90;7.55;;;;;;;12.18;75.80;97820.66;10449942;28;20068;-54
2023/09/12 02:17:44;;;;;;;9.77;6.50;;;;;;;12.22;76.13;97840.56;10449456;28;20040;-53
2023/09/12 02:22:43;;;;;;;12.30;7.15;;;;;;;12.17;75.95;97837.13;10449012;28;20048;-54
2023/09/12 02:27:42;;;;;;;12.23;6.53;;;;;;;12.14;76.01;97837.16;10449487;28;20064;-53
2023/09/12 02:32:44;;;;;;;11.73;7.10;;;;;;;12.08;76.33;97835.44;10449719;28;20107;-53
2023/09/12 02:37:43;;;;;;;14.50;7.85;;;;;;;11.99;77.10;97835.47;10449125;28;20086;-53
2023/09/12 02:42:41;;;;;;;16.02;7.55;;;;;;;11.79;77.59;97830.41;10448385;28;20127;-53
2023/09/12 02:47:43;;;;;;;13.82;8.10;;;;;;;11.86;77.67;97841.63;10448610;28;20139;-54
2023/09/12 02:52:42;;;;;;;12.90;8.18;;;;;;;11.81;78.00;97839.06;10449474;28;20667;-53
2023/09/12 02:57:40;;;;;;;13.55;7.85;;;;;;;11.81;78.20;97836.47;10449080;28;20775;-53
2023/09/12 03:02:39;;;;;;;11.48;7.05;;;;;;;11.78;77.91;97854.69;10447683;28;20536;-53
2023/09/12 03:07:38;;;;;;;13.02;7.80;;;;;;;11.64;78.29;97835.66;10449451;28;20058;-52
2023/09/12 03:12:37;;;;;;;13.82;7.35;;;;;;;11.36;77.82;97815.00;10458336;28;20110;-52
2023/09/12 03:17:36;;;;;;;16.70;8.40;;;;;;;11.48;78.90;97839.16;10457012;28;20044;-53
2023/09/12 03:22:38;;;;;;;14.80;8.95;;;;;;;11.44;78.29;97834.00;10458294;28;20787;-53
2023/09/12 03:27:37;;;;;;;12.23;8.43;;;;;;;11.44;78.32;97834.00;10456715;28;20063;-53
2023/09/12 03:32:36;;;;;;;15.38;9.00;;;;;;;11.47;79.11;97838.31;10459140;28;20058;-53
2023/09/12 03:37:39;;;;;;;13.00;7.85;;;;;;;11.41;78.97;97840.97;10456886;28;20121;-52
2023/09/12 03:42:38;;;;;;;17.33;8.85;;;;;;;11.39;78.99;97851.34;10457596;28;20066;-53
2023/09/12 03:47:37;;;;;;;13.50;8.48;;;;;;;11.31;79.04;97852.22;10457545;28;20100;-53
2023/09/12 03:52:36;;;;;;;14.52;8.63;;;;;;;11.30;79.23;97845.31;10457379;28;20124;-53
2023/09/12 03:57:35;;;;;;;14.68;8.25;;;;;;;11.24;79.37;97843.56;10458890;28;20034;-53
2023/09/12 04:02:34;;;;;;;17.80;8.77;;;;;;;11.27;79.41;97838.38;10458214;28;20086;-53
2023/09/12 04:07:33;;;;;;;16.98;8.95;;;;;;;11.33;79.17;97843.56;10458123;28;20039;-53
2023/09/12 04:12:32;;;;;;;18.75;9.30;;;;;;;11.33;79.41;97840.94;10454705;28;20111;-53
2023/09/12 04:17:31;;;;;;;15.40;8.60;;;;;;;11.34;79.91;97840.09;10452135;28;20077;-52
2023/09/12 04:22:30;;;;;;;17.50;10.25;;;;;;;11.29;80.20;97844.44;10452552;28;20102;-53
2023/09/12 04:27:29;;;;;;;18.65;10.30;;;;;;;11.26;80.19;97808.06;10452629;28;20066;-53
2023/09/12 04:32:29;;;;;;;24.52;8.85;;;;;;;11.54;80.82;97845.22;10452735;28;20046;-53
2023/09/12 04:37:27;;;;;;;;;;;;;;;11.52;79.91;97848.69;10452466;28;20056;-53
2023/09/12 04:42:26;;;;;;;21.65;9.35;;;;;;;11.40;79.17;97827.06;10452868;28;20008;-53
2023/09/12 04:47:25;;;;;;;17.48;10.05;;;;;;;11.46;79.65;97858.25;10451087;28;20103;-52
2023/09/12 04:52:24;;;;;;;17.15;8.95;;;;;;;11.42;79.89;97859.13;10452632;28;20063;-53
2023/09/12 04:57:23;;;;;;;19.83;8.68;;;;;;;11.50;79.53;97860.81;10451680;28;20028;-53
2023/09/12 05:02:22;;;;;;;94.90;17.75;;;;;;;11.58;79.75;97862.53;10450607;28;20032;-52
2023/09/12 05:07:21;;;;;;;148.50;22.90;;;;;;;11.71;79.49;97868.53;10451862;28;20036;-53
2023/09/12 05:12:20;;;;;;;94.97;20.33;;;;;;;11.85;79.02;97858.09;10452505;28;20108;-53
2023/09/12 05:17:19;;;;;;;75.90;16.42;;;;;;;11.95;79.02;97864.16;10449228;28;20054;-52
2023/09/12 05:22:18;;;;;;;79.07;17.75;;;;;;;12.10;78.55;97853.66;10451509;28;20029;-53
2023/09/12 05:27:17;;;;;;;54.08;15.55;;;;;;;12.35;77.77;97857.00;10447980;28;20039;-53
2023/09/12 05:32:16;;;;;;;44.67;11.75;;;;;;;12.13;78.03;97778.19;10450833;28;20051;-53
2023/09/12 05:37:15;;;;;;;25.83;10.88;;;;;;;12.86;76.73;97859.22;10447261;28;20841;-53
2023/09/12 05:42:20;;;;;;;18.30;9.77;;;;;;;13.08;75.68;97858.16;10450182;28;20059;-53
2023/09/12 05:47:20;;;;;;;19.45;10.15;;;;;;;13.27;74.99;97857.97;10450328;28;20491;-53
2023/09/12 05:52:19;;;;;;;21.77;10.05;;;;;;;13.43;74.78;97864.75;10450708;28;20062;-53
2023/09/12 05:57:18;;;;;;;26.02;10.52;;;;;;;13.69;73.72;97853.22;10450009;28;20028;-53
2023/09/12 06:02:17;;;;;;;20.13;10.10;;;;;;;13.96;72.68;97854.59;10448461;28;20036;-52
2023/09/12 06:07:16;;;;;;;19.73;8.95;;;;;;;13.96;72.14;97820.69;10449983;28;20071;-54
2023/09/12 06:12:15;;;;;;;;;;;;;;;14.34;71.29;97861.91;10450602;28;20047;-54
2023/09/12 06:17:14;;;;;;;14.15;9.20;;;;;;;14.50;70.72;97852.13;10449511;28;19995;-53
2023/09/12 06:22:13;;;;;;;17.55;8.43;;;;;;;14.78;69.95;97865.63;10448391;28;20040;-53
2023/09/12 06:27:18;;;;;;;18.67;7.90;;;;;;;14.87;68.88;97848.94;10450493;28;20046;-54
2023/09/12 06:32:18;;;;;;;18.30;7.88;;;;;;;15.18;67.93;97848.44;10449189;28;20064;-54
2023/09/12 06:37:18;;;;;;;12.60;7.30;;;;;;;15.52;66.80;97859.09;10449241;28;20451;-55
2023/09/12 06:42:17;;;;;;;13.23;8.20;;;;;;;15.70;65.26;97859.66;10447266;28;20476;-54
2023/09/12 06:47:16;;;;;;;;;;;;;;;15.92;64.20;97853.09;10448067;28;20067;-53
2023/09/12 06:52:15;;;;;;;14.60;7.57;;;;;;;16.20;62.76;97858.59;10448991;28;19919;-53
2023/09/12 06:57:13;;;;;;;;;;;;;;;16.44;62.26;97853.72;10449688;28;20031;-53
2023/09/12 07:02:12;;;;;;;11.05;6.57;;;;;;;16.69;60.70;97839.13;10447456;28;19915;-53
2023/09/12 07:07:11;;;;;;;13.65;6.25;;;;;;;17.00;60.19;97856.75;10448390;28;20059;-53
2023/09/12 07:12:10;;;;;;;;;;;;;;;17.25;58.65;97853.53;10447164;28;20184;-54
2023/09/12 07:17:09;;;;;;;10.73;5.37;;;;;;;17.59;57.93;97848.25;10448378;28;20002;-53
2023/09/12 07:22:08;;;;;;;9.43;5.38;;;;;;;17.89;55.92;97848.28;10447826;28;20475;-54
2023/09/12 07:27:07;;;;;;;;;;;;;;;18.19;53.70;97846.53;10448387;28;20051;-54
2023/09/12 07:32:06;;;;;;;6.60;3.80;;;;;;;18.37;53.22;97845.13;10447592;28;20363;-54
2023/09/12 07:37:05;;;;;;;8.48;4.28;;;;;;;18.56;51.54;97845.41;10447002;28;20028;-54
2023/09/12 07:42:04;;;;;;;9.40;4.78;;;;;;;18.83;51.71;97851.56;10446426;28;20103;-54
2023/09/12 07:47:03;;;;;;;9.65;4.78;;;;;;;19.15;50.33;97833.84;10447001;28;20077;-53
2023/09/12 07:52:02;;;;;;;7.50;4.35;;;;;;;19.59;49.44;97839.34;10445287;28;20063;-55
2023/09/12 07:57:01;;;;;;;9.63;4.63;;;;;;;19.82;48.04;97830.63;10451206;28;20051;-54
2023/09/12 08:02:00;;;;;;;31.52;5.85;;;;;;;20.16;47.47;97838.09;10454843;28;20032;-54
2023/09/12 08:06:59;;;;;;;10.50;4.38;;;;;;;20.54;47.43;97829.63;10454626;28;20038;-54
2023/09/12 08:11:58;;;;;;;10.43;4.88;;;;;;;20.78;46.07;97817.25;10456306;28;20071;-54
2023/09/12 08:16:57;;;;;;;9.40;4.07;;;;;;;21.11;45.93;97810.56;10456424;28;20079;-52
2023/09/12 08:21:56;;;;;;;13.95;4.03;;;;;;;21.47;45.20;97799.34;10456505;28;20032;-52
2023/09/12 08:26:55;;;;;;;7.22;4.72;;;;;;;21.84;45.36;97817.97;10455943;28;20035;-52
2023/09/12 08:31:54;;;;;;;9.68;3.80;;;;;;;22.26;43.95;97811.66;10457784;28;20114;-53
2023/09/12 08:36:54;;;;;;;9.82;4.07;;;;;;;22.58;43.85;97803.03;10456608;28;20078;-53
2023/09/12 08:41:54;;;;;;;10.75;4.20;;;;;;;22.85;43.10;97784.09;10456746;28;20063;-55
2023/09/12 08:46:53;;;;;;;10.57;4.30;;;;;;;23.21;42.32;97778.72;10457144;28;20052;-53
2023/09/12 08:51:52;;;;;;;8.13;4.70;;;;;;;23.74;40.19;97789.25;10452849;28;20024;-53
2023/09/12 08:56:51;;;;;;;9.30;4.15;;;;;;;24.19;39.32;97777.09;10455468;28;20060;-52
2023/09/12 09:01:52;;;;;;;7.60;4.22;;;;;;;24.60;37.32;97784.50;10455786;28;20070;-53
2023/09/12 09:06:51;;;;;;;7.60;3.95;;;;;;;25.00;37.74;97766.28;10440096;28;20082;-55
2023/09/12 09:11:50;;;;;;;8.95;4.40;;;;;;;25.30;37.12;97753.81;10450216;28;20082;-55
2023/09/12 09:16:50;;;;;;;6.18;3.90;;;;;;;25.63;36.13;97768.66;10450887;28;20079;-53
2023/09/12 09:21:49;;;;;;;11.30;4.22;;;;;;;25.76;34.96;97742.16;10450384;28;20099;-53
2023/09/12 09:26:58;;;;;;;9.93;4.07;;;;;;;26.16;33.98;97767.09;10450948;28;20183;-53
2023/09/12 09:31:59;;;;;;;17.23;4.55;;;;;;;26.44;33.37;97770.66;10450863;28;20281;-53
2023/09/12 09:37:02;;;;;;;7.03;3.75;;;;;;;26.58;31.59;97748.44;10450167;28;20082;-53
2023/09/12 09:42:02;;;;;;;11.10;4.10;;;;;;;25.98;30.54;97632.66;10448633;28;20067;-53
2023/09/12 09:47:13;;;;;;;10.38;3.90;;;;;;;26.89;30.92;97746.44;10446472;28;20098;-54
2023/09/12 09:52:12;;;;;;;7.53;3.47;;;;;;;27.06;30.33;97743.47;10450518;28;20663;-54
2023/09/12 09:57:11;;;;;;;6.25;3.10;;;;;;;27.12;30.40;97718.22;10447555;28;20578;-54
2023/09/12 10:02:19;;;;;;;6.88;3.55;;;;;;;27.45;29.42;97732.81;10448263;28;20834;-54
2023/09/12 10:07:18;;;;;;;6.15;3.38;;;;;;;27.60;27.46;97737.97;10444457;28;20125;-54
2023/09/12 10:12:17;;;;;;;8.57;4.10;;;;;;;27.72;28.02;97725.56;10447861;28;20063;-54
2023/09/12 10:17:24;;;;;;;8.52;3.65;;;;;;;27.85;27.74;97724.72;10448017;28;20132;-54
2023/09/12 10:23:11;;;;;;;11.15;4.78;;;;;;;27.90;27.66;97722.56;10448320;28;20063;-54
2023/09/12 10:28:11;;;;;;;7.38;3.75;;;;;;;27.91;28.37;97709.09;10423613;28;20724;-54
2023/09/12 10:33:11;;;;;;;5.60;3.08;;;;;;;28.16;27.98;97724.19;10437947;28;20937;-54
2023/09/12 10:38:13;;;;;;;8.60;3.88;;;;;;;28.32;27.58;97715.09;10447021;28;20592;-54
2023/09/12 10:43:14;;;;;;;9.98;4.40;;;;;;;28.22;26.70;97701.53;10444405;28;20107;-54
2023/09/12 10:48:13;;;;;;;7.78;3.65;;;;;;;28.27;26.51;97698.53;10446988;28;20818;-54
2023/09/12 10:53:14;;;;;;;6.72;3.95;;;;;;;28.60;27.03;97703.19;10448132;28;20066;-55
2023/09/12 10:58:14;;;;;;;8.75;4.07;;;;;;;28.66;26.69;97698.25;10448879;28;20506;-55
2023/09/12 11:03:27;;;;;;;8.13;3.53;;;;;;;28.76;25.83;97687.75;10448261;28;20119;-55
2023/09/12 11:08:28;;;;;;;5.68;3.70;;;;;;;28.96;26.25;97680.84;10448366;28;20047;-54
2023/09/12 11:13:39;;;;;;;8.43;3.70;;;;;;;29.13;25.46;97678.69;10449285;28;20050;-54
2023/09/12 11:19:16;;;;;;;6.07;3.55;;;;;;;29.11;25.60;97675.28;10448960;28;20078;-54
2023/09/12 11:24:16;;;;;;;7.60;3.42;;;;;;;29.20;25.84;97661.22;10449878;28;20517;-54
2023/09/12 11:29:15;;;;;;;7.07;3.88;;;;;;;29.37;26.50;97658.09;10449585;28;20047;-54
2023/09/12 11:34:14;;;;;;;8.25;4.53;;;;;;;29.54;25.87;97662.09;10458168;28;20067;-55
2023/09/12 11:39:27;;;;;;;11.88;4.28;;;;;;;29.40;25.11;97612.41;10458145;28;20035;-55
2023/09/12 11:44:27;;;;;;;6.20;3.60;;;;;;;29.59;25.33;97653.72;10457225;28;20068;-55
2023/09/12 11:49:26;;;;;;;8.38;3.58;;;;;;;29.48;24.54;97644.72;10456310;28;20059;-54
2023/09/12 11:54:26;;;;;;;6.55;3.40;;;;;;;29.55;24.88;97650.41;10456669;28;20067;-55
2023/09/12 11:59:26;;;;;;;7.20;3.92;;;;;;;29.58;24.44;97636.81;10457660;28;20075;-54
2023/09/12 12:04:25;;;;;;;8.82;4.18;;;;;;;29.55;25.23;97634.38;10457195;28;20063;-55
2023/09/12 12:09:24;;;;;;;5.53;3.33;;;;;;;29.64;25.41;97636.31;10456314;28;20113;-55
2023/09/12 12:14:23;;;;;;;10.35;4.00;;;;;;;29.75;25.35;97631.94;10454380;28;20064;-55
2023/09/12 12:19:22;;;;;;;7.80;3.85;;;;;;;29.69;24.75;97628.75;10453602;28;20121;-55
2023/09/12 12:24:21;;;;;;;5.80;3.45;;;;;;;29.91;24.51;97613.69;10453787;28;20123;-55
2023/09/12 12:29:22;;;;;;;11.68;3.75;;;;;;;29.73;24.40;97637.41;10453665;28;20038;-55
2023/09/12 12:34:24;;;;;;;8.60;3.33;;;;;;;29.77;24.76;97628.16;10452290;28;20055;-55
2023/09/12 12:39:23;;;;;;;9.30;3.72;;;;;;;30.02;24.40;97615.44;10450973;28;20123;-55
2023/09/12 12:44:34;;;;;;;7.50;3.85;;;;;;;29.86;23.71;97618.53;10447308;28;20129;-55
2023/09/12 12:49:39;;;;;;;8.52;4.97;;;;;;;30.08;23.68;97606.94;10451086;28;20067;-55
2023/09/12 12:54:38;;;;;;;6.85;3.60;;;;;;;30.07;23.97;97587.34;10447526;28;20110;-55
2023/09/12 12:59:38;;;;;;;7.65;3.67;;;;;;;30.18;23.42;97607.84;10451767;28;20039;-55
2023/09/12 13:04:37;;;;;;;8.88;3.33;;;;;;;30.03;23.50;97590.41;10450769;28;20056;-55
2023/09/12 13:09:37;;;;;;;9.80;3.92;;;;;;;30.06;22.49;97603.53;10451314;28;20785;-55
2023/09/12 13:14:36;;;;;;;5.82;3.80;;;;;;;29.99;22.59;97568.41;10449846;28;20479;-55
2023/09/12 13:19:35;;;;;;;7.85;3.60;;;;;;;30.22;22.55;97601.28;10448032;28;20522;-56
2023/09/12 13:24:34;;;;;;;6.70;3.80;;;;;;;30.35;21.65;97595.72;10449121;28;20502;-56
2023/09/12 13:29:33;;;;;;;4.72;3.38;;;;;;;30.49;22.11;97594.59;10449991;28;20421;-56
2023/09/12 13:34:32;;;;;;;6.90;4.05;;;;;;;30.39;22.02;97580.25;10449390;28;20028;-55
2023/09/12 13:39:31;;;;;;;6.78;3.90;;;;;;;30.29;21.98;97602.44;10449065;28;20035;-56
2023/09/12 13:44:30;;;;;;;6.93;3.50;;;;;;;30.30;21.29;97592.59;10449358;28;20034;-56
2023/09/12 13:49:29;;;;;;;6.10;3.33;;;;;;;30.30;20.98;97555.09;10448657;28;20509;-55
2023/09/12 13:54:28;;;;;;;7.28;3.65;;;;;;;30.61;21.46;97588.19;10449338;28;20136;-56
2023/09/12 13:59:27;;;;;;;9.55;3.95;;;;;;;30.58;21.76;97572.38;10444166;28;20111;-56
2023/09/12 14:04:26;;;;;;;6.03;3.05;;;;;;;30.70;21.87;97592.78;10446767;28;20043;-56
2023/09/12 14:09:25;;;;;;;7.15;3.60;;;;;;;30.69;21.32;97593.72;10447824;28;20063;-56
2023/09/12 14:14:24;;;;;;;8.05;4.13;;;;;;;30.80;20.78;97589.31;10447588;28;20042;-56
2023/09/12 14:19:23;;;;;;;6.78;3.55;;;;;;;30.66;21.43;97561.88;10451724;28;20040;-56
2023/09/12 14:24:22;;;;;;;6.80;3.63;;;;;;;30.86;21.53;97570.00;10449379;28;20048;-56
2023/09/12 14:29:26;;;;;;;7.82;3.70;;;;;;;30.70;21.17;97579.38;10451282;28;20063;-56
2023/09/12 14:34:31;;;;;;;5.30;3.50;;;;;;;30.53;21.41;97578.13;10451792;28;20059;-56
2023/09/12 14:39:30;;;;;;;7.15;3.53;;;;;;;30.29;20.89;97575.69;10451689;28;21908;-56
2023/09/12 14:44:32;;;;;;;6.82;3.65;;;;;;;30.05;21.33;97532.28;10451765;28;20562;-55
2023/09/12 14:49:31;;;;;;;8.98;3.90;;;;;;;30.27;21.63;97561.56;10451727;28;20047;-55
2023/09/12 14:54:30;;;;;;;9.25;4.10;;;;;;;30.24;21.86;97575.22;10451807;28;20027;-55
2023/09/12 14:59:29;;;;;;;8.57;3.80;;;;;;;30.26;21.80;97573.28;10449198;28;20120;-56
2023/09/12 15:04:28;;;;;;;7.55;3.30;;;;;;;29.96;21.96;97570.50;10449641;28;20024;-56
2023/09/12 15:09:27;;;;;;;9.00;3.55;;;;;;;29.78;21.40;97536.22;10457962;28;20625;-56
2023/09/12 15:14:26;;;;;;;6.00;3.08;;;;;;;29.95;21.24;97571.47;10455679;28;20107;-56
2023/09/12 15:19:25;;;;;;;7.20;3.47;;;;;;;29.81;21.35;97570.75;10454804;28;20087;-56
2023/09/12 15:24:24;;;;;;;7.03;3.30;;;;;;;29.80;21.66;97573.56;10455752;28;20028;-56
2023/09/12 15:29:30;;;;;;;7.38;3.40;;;;;;;29.84;21.47;97578.56;10456566;28;20047;-56
2023/09/12 15:34:29;;;;;;;8.30;3.97;;;;;;;29.75;22.16;97581.13;10461305;28;20067;-56
2023/09/12 15:40:11;;;;;;;8.35;3.78;;;;;;;29.67;22.06;97579.03;10455540;28;20039;-56
2023/09/12 15:45:11;;;;;;;8.75;3.47;;;;;;;29.45;22.65;97579.97;10451784;28;20181;-55
2023/09/12 15:50:30;;;;;;;6.57;3.38;;;;;;;29.42;22.76;97570.38;10452113;28;20495;-56
2023/09/12 15:55:30;;;;;;;10.65;4.97;;;;;;;29.35;25.60;97574.50;10449180;28;20820;-56
2023/09/12 16:00:32;;;;;;;8.68;4.10;;;;;;;28.96;26.31;97579.34;10450792;28;20059;-55
2023/09/12 16:05:33;;;;;;;12.27;4.70;;;;;;;28.57;26.87;97573.47;10449399;28;20063;-56
2023/09/12 16:10:38;;;;;;;13.75;4.40;;;;;;;28.25;27.44;97570.59;10450141;28;20059;-55
2023/09/12 16:15:39;;;;;;;11.15;5.35;;;;;;;27.74;27.85;97568.16;10453440;28;20068;-56
2023/09/12 16:20:39;;;;;;;8.32;4.68;;;;;;;27.42;28.17;97568.66;10457275;28;20083;-55
2023/09/12 16:25:40;;;;;;;11.52;4.63;;;;;;;27.20;29.03;97594.19;10452723;28;20062;-55
2023/09/12 16:30:45;;;;;;;10.15;4.47;;;;;;;26.78;29.53;97587.38;10457405;28;20059;-56
2023/09/12 16:35:45;;;;;;;8.85;4.75;;;;;;;26.40;29.64;97598.03;10453285;28;20032;-55
2023/09/12 16:40:46;;;;;;;13.98;4.38;;;;;;;26.07;30.61;97599.28;10452474;28;20569;-56
2023/09/12 16:45:44;;;;;;;10.88;4.13;;;;;;;25.67;30.88;97605.41;10451594;28;20064;-55
2023/09/12 16:50:46;;;;;;;8.15;3.70;;;;;;;25.26;31.42;97600.91;10451574;28;20036;-55
2023/09/12 16:55:52;;;;;;;18.20;5.47;;;;;;;24.83;32.76;97595.59;10448080;28;20311;-55
2023/09/12 17:00:55;;;;;;;10.20;4.28;;;;;;;24.72;33.39;97623.72;10450340;28;20538;-55
2023/09/12 17:05:55;;;;;;;11.25;4.80;;;;;;;24.45;33.88;97622.63;10450321;28;20083;-55
2023/09/12 17:10:55;;;;;;;10.43;4.30;;;;;;;24.18;34.18;97626.91;10451891;28;20055;-55
2023/09/12 17:15:55;;;;;;;11.70;4.68;;;;;;;23.92;35.07;97637.19;10451349;28;20566;-55
2023/09/12 17:20:54;;;;;;;12.30;5.57;;;;;;;23.68;35.30;97651.78;10451456;28;20530;-55
2023/09/12 17:25:53;;;;;;;13.10;5.47;;;;;;;23.46;35.95;97658.25;10450916;28;20089;-55
2023/09/12 17:30:52;;;;;;;10.70;5.18;;;;;;;23.19;37.17;97656.19;10450769;28;20040;-55
2023/09/12 17:35:51;;;;;;;11.30;6.03;;;;;;;23.09;37.08;97659.38;10451039;28;20058;-55
2023/09/12 17:40:50;;;;;;;8.98;5.07;;;;;;;22.76;38.14;97639.06;10450225;28;20047;-55
2023/09/12 17:45:52;;;;;;;14.27;6.00;;;;;;;22.79;38.47;97660.09;10448532;28;20123;-55
2023/09/12 17:50:51;;;;;;;18.67;7.70;;;;;;;22.44;39.32;97656.56;10451014;28;20066;-55
2023/09/12 17:55:52;;;;;;;10.38;6.25;;;;;;;22.22;40.07;97662.91;10450824;28;20059;-55
2023/09/12 18:00:58;;;;;;;17.42;7.15;;;;;;;22.12;41.18;97693.38;10448621;28;20534;-55
2023/09/12 18:05:58;;;;;;;13.80;7.18;;;;;;;22.03;43.19;97699.09;10448993;28;20086;-55
2023/09/12 18:10:57;;;;;;;13.80;6.45;;;;;;;21.88;44.44;97713.88;10449411;28;20055;-55
2023/09/12 18:15:56;;;;;;;15.73;8.52;;;;;;;21.53;44.90;97704.03;10448495;28;20136;-54
2023/09/12 18:20:56;;;;;;;23.77;15.35;;;;;;;21.17;46.02;97689.81;10447275;28;20071;-54
2023/09/12 18:25:58;;;;;;;19.77;13.25;;;;;;;21.10;46.37;97707.69;10448204;28;20144;-55
2023/09/12 18:30:57;;;;;;;16.55;11.52;;;;;;;20.61;46.28;97651.81;10450202;28;20196;-55
2023/09/12 18:35:56;;;;;;;14.68;9.95;;;;;;;20.64;46.83;97681.56;10449317;28;20042;-55
2023/09/12 18:40:55;;;;;;;16.15;8.38;;;;;;;20.71;46.54;97725.19;10448166;28;20034;-55
2023/09/12 18:45:55;;;;;;;15.98;6.57;;;;;;;20.56;46.74;97728.47;10449037;28;20068;-55
2023/09/12 18:50:54;;;;;;;11.38;6.53;;;;;;;20.39;46.92;97715.09;10449434;28;20063;-55
2023/09/12 18:55:53;;;;;;;11.77;5.82;;;;;;;20.10;46.90;97688.19;10446692;28;20064;-55
2023/09/12 19:00:52;;;;;;;12.05;5.30;;;;;;;20.41;46.74;97735.25;10444573;28;20202;-55
2023/09/12 19:05:51;;;;;;;13.88;6.53;;;;;;;20.34;47.59;97730.25;10446679;28;20142;-55
2023/09/12 19:10:51;;;;;;;9.55;6.00;;;;;;;20.17;47.58;97718.63;10445666;28;20036;-55
2023/09/12 19:15:50;;;;;;;13.75;6.88;;;;;;;20.12;48.36;97732.88;10449065;28;20079;-55
2023/09/12 19:20:49;;;;;;;12.93;7.25;;;;;;;19.71;49.15;97717.78;10448406;28;20051;-55
2023/09/12 19:25:48;;;;;;;12.48;7.10;;;;;;;19.69;50.43;97739.84;10446036;28;20490;-54
2023/09/12 19:30:47;;;;;;;18.05;7.90;;;;;;;19.63;50.48;97735.66;10448556;28;20056;-54
2023/09/12 19:35:46;;;;;;;17.92;7.57;;;;;;;18.73;51.86;97626.69;10447320;28;20032;-55
2023/09/12 19:40:45;;;;;;;14.48;8.25;;;;;;;18.63;52.38;97634.03;10447260;28;20119;-55
2023/09/12 19:45:44;;;;;;;14.00;7.15;;;;;;;19.11;53.04;97753.31;10447391;28;20556;-55
2023/09/12 19:50:49;;;;;;;11.63;7.15;;;;;;;19.09;52.97;97766.53;10448172;28;20058;-55
2023/09/12 19:55:56;;;;;;;13.75;7.10;;;;;;;19.03;53.04;97761.47;10454421;28;20071;-52
2023/09/12 20:01:00;;;;;;;12.00;7.30;;;;;;;18.89;53.84;97745.31;10455236;28;20055;-52
2023/09/12 20:06:00;;;;;;;12.13;8.02;;;;;;;18.95;53.93;97761.75;10454628;28;20075;-52
2023/09/12 20:10:59;;;;;;;13.10;7.28;;;;;;;18.98;54.07;97774.78;10443880;28;20567;-52
2023/09/12 20:15:58;;;;;;;14.52;8.13;;;;;;;18.86;54.23;97769.97;10447881;28;20076;-52
2023/09/12 20:20:58;;;;;;;17.65;8.95;;;;;;;18.78;54.55;97774.59;10450750;28;20039;-52
2023/09/12 20:25:57;;;;;;;16.42;8.20;;;;;;;18.80;55.15;97776.25;10448837;28;20075;-52
2023/09/12 20:30:56;;;;;;;15.25;8.40;;;;;;;18.43;55.53;97746.81;10451892;28;20059;-52
2023/09/12 20:35:57;;;;;;;11.77;8.00;;;;;;;18.46;55.95;97773.88;10449434;28;20131;-52
2023/09/12 20:40:56;;;;;;;13.68;8.00;;;;;;;18.47;55.80;97783.47;10450173;28;20110;-52
2023/09/12 20:45:55;;;;;;;11.70;6.90;;;;;;;18.22;56.24;97788.63;10449961;28;20513;-54
2023/09/12 20:50:54;;;;;;;15.38;9.35;;;;;;;18.17;56.05;97786.19;10446691;28;20123;-55
2023/09/12 20:55:53;;;;;;;14.32;11.40;;;;;;;18.10;56.60;97800.38;10449372;28;20043;-54
2023/09/12 21:00:52;;;;;;;19.67;11.50;;;;;;;17.72;57.07;97731.50;10449806;28;20032;-54
2023/09/12 21:05:51;;;;;;;16.30;11.30;;;;;;;17.88;57.67;97783.56;10446588;28;20052;-55
2023/09/12 21:10:50;;;;;;;17.90;11.75;;;;;;;17.81;57.79;97784.66;10448995;28;20060;-55
2023/09/12 21:15:50;;;;;;;18.45;8.95;;;;;;;17.70;57.73;97782.31;10447643;28;20050;-55
2023/09/12 21:20:52;;;;;;;14.48;9.35;;;;;;;17.65;58.08;97792.09;10448810;28;20569;-54
2023/09/12 21:25:54;;;;;;;15.90;10.25;;;;;;;17.62;58.78;97790.41;10448167;28;20063;-54
2023/09/12 21:30:53;;;;;;;13.02;9.60;;;;;;;17.56;58.59;97786.19;10448417;28;20067;-54
2023/09/12 21:35:52;;;;;;;14.77;9.15;;;;;;;17.49;58.57;97791.66;10447447;28;20031;-54
2023/09/12 21:40:51;;;;;;;;;;;;;;;17.37;59.33;97786.75;10448280;28;20035;-54
2023/09/12 21:45:50;;;;;;;18.17;9.77;;;;;;;17.21;60.10;97787.16;10447125;28;19970;-54
2023/09/12 21:50:51;;;;;;;;;;;;;;;17.24;59.96;97792.34;10448237;28;20031;-54
2023/09/12 21:55:50;;;;;;;13.80;10.13;;;;;;;17.18;60.81;97791.66;10447080;28;19950;-53
2023/09/12 22:00:50;;;;;;;13.88;9.73;;;;;;;16.73;61.42;97745.59;10445964;28;20131;-53
2023/09/12 22:05:49;;;;;;;20.63;10.77;;;;;;;16.94;62.15;97788.78;10445227;28;20111;-54
2023/09/12 22:10:48;;;;;;;17.80;11.05;;;;;;;16.77;63.13;97770.84;10447323;28;20028;-54
2023/09/12 22:15:47;;;;;;;16.45;10.32;;;;;;;16.58;63.46;97756.47;10447730;28;20144;-53
2023/09/12 22:20:46;;;;;;;20.73;11.10;;;;;;;16.72;63.18;97783.19;10448125;28;20047;-53
2023/09/12 22:25:45;;;;;;;19.13;11.18;;;;;;;16.66;64.37;97794.69;10446529;28;20076;-53
2023/09/12 22:30:44;;;;;;;;;;;;;;;16.62;64.48;97787.78;10446916;28;20053;-53
2023/09/12 22:35:51;;;;;;;17.60;9.93;;;;;;;16.61;64.35;97785.22;10447130;28;19911;-54
2023/09/12 22:40:51;;;;;;;21.45;9.90;;;;;;;16.35;64.42;97760.53;10448698;28;20051;-54
2023/09/12 22:45:50;;;;;;;21.98;9.60;;;;;;;16.48;64.29;97788.13;10448706;28;20074;-53
2023/09/12 22:50:51;;;;;;;;;;;;;;;16.42;64.03;97779.53;10450247;28;20032;-54
2023/09/12 22:55:50;;;;;;;14.27;7.65;;;;;;;16.21;64.79;97779.19;10452178;28;20643;-54
2023/09/12 23:00:49;;;;;;;;;;;;;;;16.23;65.00;97789.59;10452777;28;20792;-53
2023/09/12 23:05:48;;;;;;;13.57;8.90;;;;;;;15.79;65.33;97726.06;10451849;28;19954;-53
2023/09/12 23:10:47;;;;;;;14.55;7.93;;;;;;;15.97;66.21;97788.44;10447353;28;20470;-53